Terminal Aerodrome Forecast
Issued by NWS

Home | Current Version | Previous Version | Text Only | Print | Product List | Glossary On
Versions: 1 2 3 4 5 6 7 8 9 10 11 12 13 14 15
000
FTUS46 KSEW 201300 AAA
TAFOLM
TAF AMD
KOLM 201322Z 2013/2112 21008KT P6SM OVC025
     FM202000 20006KT P6SM BKN030
     FM202200 20006KT P6SM SCT040
     FM211000 22006KT P6SM BKN020=

USA.gov is the U.S. government's official web portal to all federal, state and local government web resources and services.